Terminal Aerodrome Forecast
Issued by NWS Goodland, KS

Home | Current Version | Previous Version | Text Only | Print | Product List | Glossary On
Versions: 1 2 3 4 5 6 7 8 9 10 11 12 13 14 15 16 17 18 19 20
407
FTUS43 KGLD 150532
TAFGLD
TAF
KGLD 150532Z 1506/1606 18007KT P6SM OVC020
     FM150900 14005KT P6SM VCSH SCT010 OVC015
     FM151400 13006KT 6SM -FZRA SCT008 OVC015
     FM151600 13006KT 4SM -PL SCT003 OVC008
     FM160100 09005KT 3SM -FZRA OVC003=

USA.gov is the U.S. government's official web portal to all federal, state and local government web resources and services.